sensor_id;sensor_type;location;lat;lon;timestamp;pressure;altitude;pressure_sealevel;temperature;humidity
45888;BME280;31595;51.418;7.572;2022-08-11T00:02:31;100940.63;;;19.45;51.64
45888;BME280;31595;51.418;7.572;2022-08-11T00:05:09;100947.00;;;19.42;51.72
45888;BME280;31595;51.418;7.572;2022-08-11T00:07:47;100949.19;;;19.33;52.04
45888;BME280;31595;51.418;7.572;2022-08-11T00:10:17;100940.97;;;19.28;51.83
45888;BME280;31595;51.418;7.572;2022-08-11T00:12:50;100936.03;;;19.25;51.97
45888;BME280;31595;51.418;7.572;2022-08-11T00:15:18;100946.25;;;19.14;52.49
45888;BME280;31595;51.418;7.572;2022-08-11T00:17:46;100937.81;;;19.01;52.77
45888;BME280;31595;51.418;7.572;2022-08-11T00:20:15;100942.44;;;18.94;52.93
45888;BME280;31595;51.418;7.572;2022-08-11T00:22:46;100941.50;;;18.90;53.12
45888;BME280;31595;51.418;7.572;2022-08-11T00:25:16;100934.88;;;18.82;53.15
45888;BME280;31595;51.418;7.572;2022-08-11T00:27:45;100942.38;;;18.78;53.72
45888;BME280;31595;51.418;7.572;2022-08-11T00:30:15;100948.72;;;18.75;53.73
45888;BME280;31595;51.418;7.572;2022-08-11T00:32:51;100946.63;;;18.72;54.00
45888;BME280;31595;51.418;7.572;2022-08-11T00:35:25;100945.81;;;18.71;53.70
45888;BME280;31595;51.418;7.572;2022-08-11T00:37:55;100934.41;;;18.67;53.68
45888;BME280;31595;51.418;7.572;2022-08-11T00:40:28;100937.69;;;18.70;53.79
45888;BME280;31595;51.418;7.572;2022-08-11T00:43:07;100942.41;;;18.65;53.89
45888;BME280;31595;51.418;7.572;2022-08-11T00:45:42;100939.13;;;18.63;53.59
45888;BME280;31595;51.418;7.572;2022-08-11T00:48:24;100939.84;;;18.60;54.09
45888;BME280;31595;51.418;7.572;2022-08-11T00:51:03;100937.28;;;18.55;54.04
45888;BME280;31595;51.418;7.572;2022-08-11T00:53:43;100935.19;;;18.52;54.24
45888;BME280;31595;51.418;7.572;2022-08-11T00:56:37;100942.00;;;18.51;54.29
45888;BME280;31595;51.418;7.572;2022-08-11T00:59:25;100944.59;;;18.44;54.82
45888;BME280;31595;51.418;7.572;2022-08-11T01:02:11;100946.38;;;18.36;55.38
45888;BME280;31595;51.418;7.572;2022-08-11T01:05:18;100945.72;;;18.27;55.11
45888;BME280;31595;51.418;7.572;2022-08-11T01:08:20;100948.28;;;18.20;55.21
45888;BME280;31595;51.418;7.572;2022-08-11T01:11:01;100947.72;;;18.14;55.30
45888;BME280;31595;51.418;7.572;2022-08-11T01:14:07;100937.88;;;18.08;55.56
45888;BME280;31595;51.418;7.572;2022-08-11T01:17:03;100940.44;;;18.01;55.77
45888;BME280;31595;51.418;7.572;2022-08-11T01:19:51;100932.22;;;17.96;55.81
45888;BME280;31595;51.418;7.572;2022-08-11T01:22:55;100934.00;;;17.88;56.09
45888;BME280;31595;51.418;7.572;2022-08-11T01:25:57;100943.97;;;17.85;56.04
45888;BME280;31595;51.418;7.572;2022-08-11T01:31:57;100946.03;;;17.76;56.38
45888;BME280;31595;51.418;7.572;2022-08-11T01:44:31;100943.94;;;17.61;56.86
45888;BME280;31595;51.418;7.572;2022-08-11T01:47:12;100943.69;;;17.54;57.01
45888;BME280;31595;51.418;7.572;2022-08-11T01:50:12;100941.47;;;17.47;57.56
45888;BME280;31595;51.418;7.572;2022-08-11T01:52:53;100940.28;;;17.48;57.46
45888;BME280;31595;51.418;7.572;2022-08-11T01:55:32;100951.53;;;17.48;57.53
45888;BME280;31595;51.418;7.572;2022-08-11T01:58:08;100946.03;;;17.39;57.64
45888;BME280;31595;51.418;7.572;2022-08-11T02:00:51;100949.53;;;17.36;57.81
45888;BME280;31595;51.418;7.572;2022-08-11T02:03:26;100946.22;;;17.34;57.83
45888;BME280;31595;51.418;7.572;2022-08-11T02:06:04;100952.91;;;17.30;58.06
45888;BME280;31595;51.418;7.572;2022-08-11T02:08:58;100953.16;;;17.24;58.16
45888;BME280;31595;51.418;7.572;2022-08-11T02:11:30;100953.50;;;17.23;58.04
45888;BME280;31595;51.418;7.572;2022-08-11T02:14:06;100943.75;;;17.20;57.99
45888;BME280;31595;51.418;7.572;2022-08-11T02:16:49;100950.91;;;17.18;57.91
45888;BME280;31595;51.418;7.572;2022-08-11T02:19:23;100946.78;;;17.15;58.19
45888;BME280;31595;51.418;7.572;2022-08-11T02:22:18;100949.00;;;17.10;58.30
45888;BME280;31595;51.418;7.572;2022-08-11T02:25:10;100952.16;;;17.08;58.53
45888;BME280;31595;51.418;7.572;2022-08-11T02:27:47;100953.53;;;17.02;58.62
45888;BME280;31595;51.418;7.572;2022-08-11T02:30:19;100953.06;;;17.00;58.53
45888;BME280;31595;51.418;7.572;2022-08-11T02:32:57;100959.75;;;16.95;58.54
45888;BME280;31595;51.418;7.572;2022-08-11T02:35:54;100945.88;;;16.90;58.73
45888;BME280;31595;51.418;7.572;2022-08-11T02:38:28;100944.25;;;16.89;58.94
45888;BME280;31595;51.418;7.572;2022-08-11T02:41:05;100942.56;;;16.88;58.79
45888;BME280;31595;51.418;7.572;2022-08-11T02:44:09;100950.09;;;16.84;58.78
45888;BME280;31595;51.418;7.572;2022-08-11T02:46:47;100939.66;;;16.84;58.90
45888;BME280;31595;51.418;7.572;2022-08-11T02:49:27;100942.53;;;16.76;59.27
45888;BME280;31595;51.418;7.572;2022-08-11T02:52:23;100941.91;;;16.70;59.07
45888;BME280;31595;51.418;7.572;2022-08-11T02:55:12;100944.56;;;16.67;59.17
45888;BME280;31595;51.418;7.572;2022-08-11T02:57:48;100938.81;;;16.63;59.49
45888;BME280;31595;51.418;7.572;2022-08-11T03:00:20;100942.66;;;16.58;59.59
45888;BME280;31595;51.418;7.572;2022-08-11T03:03:11;100943.84;;;16.57;59.78
45888;BME280;31595;51.418;7.572;2022-08-11T03:05:53;100943.84;;;16.57;59.44
45888;BME280;31595;51.418;7.572;2022-08-11T03:08:42;100951.44;;;16.57;59.50
45888;BME280;31595;51.418;7.572;2022-08-11T03:11:20;100951.50;;;16.48;59.70
45888;BME280;31595;51.418;7.572;2022-08-11T03:14:18;100951.09;;;16.37;60.18
45888;BME280;31595;51.418;7.572;2022-08-11T03:17:15;100951.44;;;16.36;60.26
45888;BME280;31595;51.418;7.572;2022-08-11T03:19:56;100955.41;;;16.35;60.16
45888;BME280;31595;51.418;7.572;2022-08-11T03:22:31;100951.25;;;16.41;59.98
45888;BME280;31595;51.418;7.572;2022-08-11T03:25:07;100946.31;;;16.38;60.07
45888;BME280;31595;51.418;7.572;2022-08-11T03:27:47;100950.28;;;16.37;59.95
45888;BME280;31595;51.418;7.572;2022-08-11T03:30:20;100943.22;;;16.31;60.02
45888;BME280;31595;51.418;7.572;2022-08-11T03:33:18;100953.47;;;16.27;60.30
45888;BME280;31595;51.418;7.572;2022-08-11T03:36:13;100953.69;;;16.21;60.37
45888;BME280;31595;51.418;7.572;2022-08-11T03:38:58;100953.22;;;16.19;60.29
45888;BME280;31595;51.418;7.572;2022-08-11T03:41:48;100947.59;;;16.19;60.55
45888;BME280;31595;51.418;7.572;2022-08-11T03:44:41;100952.38;;;16.19;60.55
45888;BME280;31595;51.418;7.572;2022-08-11T03:47:33;100952.91;;;16.12;60.70
45888;BME280;31595;51.418;7.572;2022-08-11T03:50:13;100946.31;;;16.08;60.78
45888;BME280;31595;51.418;7.572;2022-08-11T03:52:50;100954.28;;;16.06;60.74
45888;BME280;31595;51.418;7.572;2022-08-11T03:55:31;100951.47;;;16.06;60.62
45888;BME280;31595;51.418;7.572;2022-08-11T03:58:32;100954.97;;;16.03;60.52
45888;BME280;31595;51.418;7.572;2022-08-11T04:01:33;100947.19;;;16.00;60.81
45888;BME280;31595;51.418;7.572;2022-08-11T04:11:04;100942.28;;;15.97;60.76
45888;BME280;31595;51.418;7.572;2022-08-11T04:17:34;100946.59;;;15.94;60.88
45888;BME280;31595;51.418;7.572;2022-08-11T04:23:22;100945.94;;;15.89;60.82
45888;BME280;31595;51.418;7.572;2022-08-11T04:29:05;100947.13;;;15.88;60.83
45888;BME280;31595;51.418;7.572;2022-08-11T04:31:38;100946.09;;;15.92;60.75
45888;BME280;31595;51.418;7.572;2022-08-11T04:34:35;100937.34;;;15.94;60.44
45888;BME280;31595;51.418;7.572;2022-08-11T04:37:11;100942.47;;;15.92;60.59
45888;BME280;31595;51.418;7.572;2022-08-11T04:40:09;100950.53;;;15.93;60.61
45888;BME280;31595;51.418;7.572;2022-08-11T04:46:18;100946.91;;;15.93;60.66
45888;BME280;31595;51.418;7.572;2022-08-11T04:52:27;100953.34;;;15.93;60.84
45888;BME280;31595;51.418;7.572;2022-08-11T04:55:58;100951.41;;;15.94;61.17
45888;BME280;31595;51.418;7.572;2022-08-11T04:58:54;100955.16;;;15.98;61.14
45888;BME280;31595;51.418;7.572;2022-08-11T05:04:50;100964.84;;;16.09;60.94
45888;BME280;31595;51.418;7.572;2022-08-11T05:08:12;100951.25;;;15.90;61.57
45888;BME280;31595;51.418;7.572;2022-08-11T05:10:59;100953.69;;;15.53;63.22
45888;BME280;31595;51.418;7.572;2022-08-11T05:13:32;100943.72;;;15.73;62.75
45888;BME280;31595;51.418;7.572;2022-08-11T05:16:19;100953.13;;;15.77;62.52
45888;BME280;31595;51.418;7.572;2022-08-11T05:19:06;100948.00;;;15.71;63.06
45888;BME280;31595;51.418;7.572;2022-08-11T05:21:54;100950.31;;;16.07;61.80
45888;BME280;31595;51.418;7.572;2022-08-11T05:25:00;100955.06;;;16.15;61.81
45888;BME280;31595;51.418;7.572;2022-08-11T05:27:51;100963.09;;;16.26;61.65
45888;BME280;31595;51.418;7.572;2022-08-11T05:30:41;100960.41;;;16.50;60.79
45888;BME280;31595;51.418;7.572;2022-08-11T05:33:32;100952.66;;;16.68;60.37
45888;BME280;31595;51.418;7.572;2022-08-11T05:36:26;100962.22;;;16.76;60.07
45888;BME280;31595;51.418;7.572;2022-08-11T05:39:01;100960.41;;;16.92;59.25
45888;BME280;31595;51.418;7.572;2022-08-11T05:41:47;100960.34;;;17.01;59.25
45888;BME280;31595;51.418;7.572;2022-08-11T05:44:34;100962.47;;;17.04;58.88
45888;BME280;31595;51.418;7.572;2022-08-11T05:47:22;100967.56;;;17.23;58.92
45888;BME280;31595;51.418;7.572;2022-08-11T05:50:10;100971.50;;;17.43;58.33
45888;BME280;31595;51.418;7.572;2022-08-11T05:52:56;100968.00;;;17.58;57.66
45888;BME280;31595;51.418;7.572;2022-08-11T05:55:43;100971.78;;;17.75;57.38
45888;BME280;31595;51.418;7.572;2022-08-11T05:58:33;100968.16;;;17.87;57.09
45888;BME280;31595;51.418;7.572;2022-08-11T06:01:01;100964.41;;;17.95;56.60
45888;BME280;31595;51.418;7.572;2022-08-11T06:03:29;100969.34;;;18.10;56.43
45888;BME280;31595;51.418;7.572;2022-08-11T06:06:19;100960.38;;;18.20;56.24
45888;BME280;31595;51.418;7.572;2022-08-11T06:08:48;100962.38;;;18.32;56.18
45888;BME280;31595;51.418;7.572;2022-08-11T06:11:16;100959.41;;;18.41;56.06
45888;BME280;31595;51.418;7.572;2022-08-11T06:13:45;100960.94;;;18.51;55.74
45888;BME280;31595;51.418;7.572;2022-08-11T06:16:13;100956.75;;;18.60;55.49
45888;BME280;31595;51.418;7.572;2022-08-11T06:18:44;100954.75;;;18.73;55.27
45888;BME280;31595;51.418;7.572;2022-08-11T06:21:13;100949.31;;;18.80;55.36
45888;BME280;31595;51.418;7.572;2022-08-11T06:23:41;100954.34;;;18.87;55.25
45888;BME280;31595;51.418;7.572;2022-08-11T06:26:12;100953.84;;;18.97;55.01
45888;BME280;31595;51.418;7.572;2022-08-11T06:28:42;100954.88;;;19.05;55.31
45888;BME280;31595;51.418;7.572;2022-08-11T06:31:12;100950.69;;;19.15;55.24
45888;BME280;31595;51.418;7.572;2022-08-11T06:33:52;100947.44;;;19.29;55.27
45888;BME280;31595;51.418;7.572;2022-08-11T06:36:30;100948.53;;;19.40;55.25
45888;BME280;31595;51.418;7.572;2022-08-11T06:39:09;100952.94;;;19.53;55.34
45888;BME280;31595;51.418;7.572;2022-08-11T06:41:48;100949.56;;;19.63;55.31
45888;BME280;31595;51.418;7.572;2022-08-11T06:44:26;100951.31;;;19.68;55.32
45888;BME280;31595;51.418;7.572;2022-08-11T06:46:55;100949.69;;;19.83;54.94
45888;BME280;31595;51.418;7.572;2022-08-11T06:49:36;100940.66;;;19.93;55.06
45888;BME280;31595;51.418;7.572;2022-08-11T06:52:28;100941.44;;;20.10;54.88
45888;BME280;31595;51.418;7.572;2022-08-11T06:54:59;100934.56;;;20.26;54.64
45888;BME280;31595;51.418;7.572;2022-08-11T06:57:34;100938.06;;;20.39;54.29
45888;BME280;31595;51.418;7.572;2022-08-11T07:00:27;100937.56;;;20.53;53.59
45888;BME280;31595;51.418;7.572;2022-08-11T07:02:59;100937.44;;;20.65;53.18
45888;BME280;31595;51.418;7.572;2022-08-11T07:05:38;100929.25;;;20.80;52.72
45888;BME280;31595;51.418;7.572;2022-08-11T07:08:29;100944.88;;;20.93;52.16
45888;BME280;31595;51.418;7.572;2022-08-11T07:11:49;100940.84;;;21.14;51.92
45888;BME280;31595;51.418;7.572;2022-08-11T07:14:46;100941.56;;;21.30;51.74
45888;BME280;31595;51.418;7.572;2022-08-11T07:17:35;100937.00;;;21.45;51.32
45888;BME280;31595;51.418;7.572;2022-08-11T07:20:05;100932.03;;;21.61;50.86
45888;BME280;31595;51.418;7.572;2022-08-11T07:22:55;100931.94;;;21.81;50.10
45888;BME280;31595;51.418;7.572;2022-08-11T07:25:42;100935.28;;;22.40;48.66
45888;BME280;31595;51.418;7.572;2022-08-11T07:28:29;100924.44;;;23.13;46.66
45888;BME280;31595;51.418;7.572;2022-08-11T07:31:16;100922.34;;;23.96;44.76
45888;BME280;31595;51.418;7.572;2022-08-11T07:33:48;100916.63;;;24.55;43.34
45888;BME280;31595;51.418;7.572;2022-08-11T07:36:17;100916.09;;;25.44;41.54
45888;BME280;31595;51.418;7.572;2022-08-11T07:38:47;100918.50;;;26.24;39.43
45888;BME280;31595;51.418;7.572;2022-08-11T07:41:17;100908.53;;;26.86;37.80
45888;BME280;31595;51.418;7.572;2022-08-11T07:43:49;100908.25;;;27.89;36.19
45888;BME280;31595;51.418;7.572;2022-08-11T07:46:19;100913.25;;;28.57;35.29
45888;BME280;31595;51.418;7.572;2022-08-11T07:49:06;100915.53;;;29.58;34.06
45888;BME280;31595;51.418;7.572;2022-08-11T07:51:52;100907.69;;;30.33;32.95
45888;BME280;31595;51.418;7.572;2022-08-11T07:54:38;100901.06;;;31.29;30.52
45888;BME280;31595;51.418;7.572;2022-08-11T07:57:07;100911.81;;;31.94;29.20
45888;BME280;31595;51.418;7.572;2022-08-11T07:59:53;100897.41;;;32.69;28.21
45888;BME280;31595;51.418;7.572;2022-08-11T08:02:42;100902.66;;;33.89;26.19
45888;BME280;31595;51.418;7.572;2022-08-11T08:05:28;100904.84;;;35.08;24.90
45888;BME280;31595;51.418;7.572;2022-08-11T08:08:14;100905.38;;;36.25;23.75
45888;BME280;31595;51.418;7.572;2022-08-11T08:10:59;100899.03;;;37.33;22.53
45888;BME280;31595;51.418;7.572;2022-08-11T08:13:45;100894.66;;;38.34;21.45
45888;BME280;31595;51.418;7.572;2022-08-11T08:16:31;100891.06;;;39.29;20.33
45888;BME280;31595;51.418;7.572;2022-08-11T08:19:19;100896.59;;;40.18;19.26
45888;BME280;31595;51.418;7.572;2022-08-11T08:21:47;100897.25;;;40.74;18.57
45888;BME280;31595;51.418;7.572;2022-08-11T08:24:17;100897.94;;;41.22;17.77
45888;BME280;31595;51.418;7.572;2022-08-11T08:26:47;100901.47;;;41.74;17.40
45888;BME280;31595;51.418;7.572;2022-08-11T08:29:25;100901.50;;;41.80;18.00
45888;BME280;31595;51.418;7.572;2022-08-11T08:32:10;100901.03;;;42.70;16.83
45888;BME280;31595;51.418;7.572;2022-08-11T08:34:39;100897.88;;;43.13;16.62
45888;BME280;31595;51.418;7.572;2022-08-11T08:37:07;100896.75;;;43.61;16.11
45888;BME280;31595;51.418;7.572;2022-08-11T08:39:34;100884.81;;;44.23;15.67
45888;BME280;31595;51.418;7.572;2022-08-11T08:42:07;100885.34;;;44.16;15.66
45888;BME280;31595;51.418;7.572;2022-08-11T08:44:40;100895.19;;;44.71;14.79
45888;BME280;31595;51.418;7.572;2022-08-11T08:47:13;100892.69;;;44.87;14.60
45888;BME280;31595;51.418;7.572;2022-08-11T08:49:47;100896.19;;;45.70;14.53
45888;BME280;31595;51.418;7.572;2022-08-11T08:52:19;100887.13;;;46.50;13.14
45888;BME280;31595;51.418;7.572;2022-08-11T08:54:53;100890.28;;;47.03;12.90
45888;BME280;31595;51.418;7.572;2022-08-11T08:57:23;100887.63;;;46.86;12.88
45888;BME280;31595;51.418;7.572;2022-08-11T08:59:53;100884.94;;;47.74;12.04
45888;BME280;31595;51.418;7.572;2022-08-11T09:02:24;100888.88;;;48.64;11.47
45888;BME280;31595;51.418;7.572;2022-08-11T09:04:53;100882.22;;;49.63;10.82
45888;BME280;31595;51.418;7.572;2022-08-11T09:07:22;100883.44;;;50.41;10.25
45888;BME280;31595;51.418;7.572;2022-08-11T09:09:53;100875.97;;;50.70;9.63
45888;BME280;31595;51.418;7.572;2022-08-11T09:12:26;100875.78;;;51.45;9.04
45888;BME280;31595;51.418;7.572;2022-08-11T09:14:55;100869.38;;;51.72;8.92
45888;BME280;31595;51.418;7.572;2022-08-11T09:17:32;100873.00;;;51.63;9.03
45888;BME280;31595;51.418;7.572;2022-08-11T09:20:04;100863.03;;;52.64;8.43
45888;BME280;31595;51.418;7.572;2022-08-11T09:22:34;100856.94;;;53.30;7.67
45888;BME280;31595;51.418;7.572;2022-08-11T09:25:20;100863.69;;;53.30;7.31
45888;BME280;31595;51.418;7.572;2022-08-11T09:28:09;100862.31;;;53.66;7.19
45888;BME280;31595;51.418;7.572;2022-08-11T09:30:40;100860.38;;;53.96;6.66
45888;BME280;31595;51.418;7.572;2022-08-11T09:33:11;100865.88;;;54.44;6.37
45888;BME280;31595;51.418;7.572;2022-08-11T09:35:41;100862.59;;;53.61;6.87
45888;BME280;31595;51.418;7.572;2022-08-11T09:38:13;100853.09;;;54.07;6.21
45888;BME280;31595;51.418;7.572;2022-08-11T09:41:00;100854.25;;;53.77;6.62
45888;BME280;31595;51.418;7.572;2022-08-11T09:43:30;100849.91;;;53.18;6.70
45888;BME280;31595;51.418;7.572;2022-08-11T09:46:16;100847.31;;;51.04;7.40
45888;BME280;31595;51.418;7.572;2022-08-11T09:48:51;100858.69;;;51.84;7.03
45888;BME280;31595;51.418;7.572;2022-08-11T09:51:23;100846.09;;;52.42;6.36
45888;BME280;31595;51.418;7.572;2022-08-11T09:53:52;100854.44;;;51.31;6.73
45888;BME280;31595;51.418;7.572;2022-08-11T09:56:21;100855.59;;;51.44;6.73
45888;BME280;31595;51.418;7.572;2022-08-11T09:59:07;100856.38;;;50.75;6.74
45888;BME280;31595;51.418;7.572;2022-08-11T10:01:38;100848.69;;;52.05;6.56
45888;BME280;31595;51.418;7.572;2022-08-11T10:04:11;100847.13;;;52.36;6.35
45888;BME280;31595;51.418;7.572;2022-08-11T10:06:44;100847.28;;;52.06;6.89
45888;BME280;31595;51.418;7.572;2022-08-11T10:09:36;100859.91;;;49.62;7.29
45888;BME280;31595;51.418;7.572;2022-08-11T10:12:08;100856.44;;;47.76;8.67
45888;BME280;31595;51.418;7.572;2022-08-11T10:14:41;100846.09;;;48.65;8.05
45888;BME280;31595;51.418;7.572;2022-08-11T10:17:29;100845.31;;;48.65;8.26
45888;BME280;31595;51.418;7.572;2022-08-11T10:20:00;100833.78;;;49.24;8.10
45888;BME280;31595;51.418;7.572;2022-08-11T10:22:31;100838.34;;;49.90;7.98
45888;BME280;31595;51.418;7.572;2022-08-11T10:25:16;100833.78;;;49.89;7.96
45888;BME280;31595;51.418;7.572;2022-08-11T10:28:02;100846.47;;;49.97;8.40
45888;BME280;31595;51.418;7.572;2022-08-11T10:30:36;100835.88;;;50.10;7.96
45888;BME280;31595;51.418;7.572;2022-08-11T10:33:18;100845.63;;;50.33;7.88
45888;BME280;31595;51.418;7.572;2022-08-11T10:36:04;100833.44;;;51.37;7.35
45888;BME280;31595;51.418;7.572;2022-08-11T10:38:34;100828.47;;;51.47;6.94
45888;BME280;31595;51.418;7.572;2022-08-11T10:41:06;100834.63;;;51.97;6.83
45888;BME280;31595;51.418;7.572;2022-08-11T10:43:52;100822.00;;;52.88;6.28
45888;BME280;31595;51.418;7.572;2022-08-11T10:46:20;100824.53;;;52.91;6.43
45888;BME280;31595;51.418;7.572;2022-08-11T10:49:05;100815.91;;;52.78;6.11
45888;BME280;31595;51.418;7.572;2022-08-11T10:51:37;100817.16;;;52.09;6.43
45888;BME280;31595;51.418;7.572;2022-08-11T10:54:23;100805.03;;;52.98;6.56
45888;BME280;31595;51.418;7.572;2022-08-11T10:57:11;100807.06;;;52.05;6.50
45888;BME280;31595;51.418;7.572;2022-08-11T10:59:58;100816.03;;;50.49;7.28
45888;BME280;31595;51.418;7.572;2022-08-11T11:02:29;100803.03;;;50.83;7.24
45888;BME280;31595;51.418;7.572;2022-08-11T11:04:58;100808.66;;;49.75;7.56
45888;BME280;31595;51.418;7.572;2022-08-11T11:07:36;100807.94;;;49.25;7.59
45888;BME280;31595;51.418;7.572;2022-08-11T11:10:06;100800.53;;;50.27;7.45
45888;BME280;31595;51.418;7.572;2022-08-11T11:12:37;100788.34;;;51.31;7.01
45888;BME280;31595;51.418;7.572;2022-08-11T11:15:24;100787.66;;;52.04;6.54
45888;BME280;31595;51.418;7.572;2022-08-11T11:18:15;100786.91;;;50.09;6.92
45888;BME280;31595;51.418;7.572;2022-08-11T11:20:49;100792.31;;;49.45;7.75
45888;BME280;31595;51.418;7.572;2022-08-11T11:23:19;100793.50;;;50.46;6.92
45888;BME280;31595;51.418;7.572;2022-08-11T11:26:20;100780.03;;;51.85;6.80
45888;BME280;31595;51.418;7.572;2022-08-11T11:29:10;100776.34;;;52.68;6.55
45888;BME280;31595;51.418;7.572;2022-08-11T11:31:50;100777.41;;;53.23;6.09
45888;BME280;31595;51.418;7.572;2022-08-11T11:34:32;100774.94;;;50.91;7.09
45888;BME280;31595;51.418;7.572;2022-08-11T11:37:03;100768.75;;;51.76;7.15
45888;BME280;31595;51.418;7.572;2022-08-11T11:39:31;100771.81;;;52.01;6.52
45888;BME280;31595;51.418;7.572;2022-08-11T11:42:04;100774.53;;;50.64;7.16
45888;BME280;31595;51.418;7.572;2022-08-11T11:44:35;100765.63;;;50.95;8.04
45888;BME280;31595;51.418;7.572;2022-08-11T11:47:04;100758.41;;;51.92;7.04
45888;BME280;31595;51.418;7.572;2022-08-11T11:49:33;100756.72;;;51.10;7.34
45888;BME280;31595;51.418;7.572;2022-08-11T11:52:05;100755.91;;;51.17;7.64
45888;BME280;31595;51.418;7.572;2022-08-11T11:54:34;100748.25;;;51.63;7.73
45888;BME280;31595;51.418;7.572;2022-08-11T11:57:04;100735.84;;;51.89;7.65
45888;BME280;31595;51.418;7.572;2022-08-11T11:59:47;100735.44;;;51.52;7.56
45888;BME280;31595;51.418;7.572;2022-08-11T12:02:32;100727.25;;;50.89;8.04
45888;BME280;31595;51.418;7.572;2022-08-11T12:04:59;100734.16;;;50.30;8.29
45888;BME280;31595;51.418;7.572;2022-08-11T12:07:28;100732.59;;;50.91;7.78
45888;BME280;31595;51.418;7.572;2022-08-11T12:10:14;100746.84;;;50.46;8.19
45888;BME280;31595;51.418;7.572;2022-08-11T12:12:44;100743.63;;;51.21;7.42
45888;BME280;31595;51.418;7.572;2022-08-11T12:15:29;100722.19;;;51.38;6.85
45888;BME280;31595;51.418;7.572;2022-08-11T12:17:58;100725.94;;;51.46;6.97
45888;BME280;31595;51.418;7.572;2022-08-11T12:20:29;100717.97;;;50.70;7.27
45888;BME280;31595;51.418;7.572;2022-08-11T12:23:05;100723.31;;;50.48;7.77
45888;BME280;31595;51.418;7.572;2022-08-11T12:25:50;100729.50;;;49.03;8.16
45888;BME280;31595;51.418;7.572;2022-08-11T12:28:37;100721.97;;;49.74;7.82
45888;BME280;31595;51.418;7.572;2022-08-11T12:31:05;100716.69;;;49.00;8.47
45888;BME280;31595;51.418;7.572;2022-08-11T12:33:35;100714.06;;;49.33;8.72
45888;BME280;31595;51.418;7.572;2022-08-11T12:36:03;100710.38;;;48.12;8.10
45888;BME280;31595;51.418;7.572;2022-08-11T12:38:32;100710.03;;;48.36;8.70
45888;BME280;31595;51.418;7.572;2022-08-11T12:41:01;100718.19;;;47.27;8.66
45888;BME280;31595;51.418;7.572;2022-08-11T12:43:48;100709.44;;;46.95;8.85
45888;BME280;31595;51.418;7.572;2022-08-11T12:46:33;100703.72;;;46.44;8.88
45888;BME280;31595;51.418;7.572;2022-08-11T12:49:07;100702.84;;;45.97;9.33
45888;BME280;31595;51.418;7.572;2022-08-11T12:51:54;100687.84;;;46.60;9.41
45888;BME280;31595;51.418;7.572;2022-08-11T12:54:28;100688.38;;;47.17;8.58
45888;BME280;31595;51.418;7.572;2022-08-11T12:56:59;100693.13;;;47.21;8.93
45888;BME280;31595;51.418;7.572;2022-08-11T12:59:45;100685.97;;;45.41;9.77
45888;BME280;31595;51.418;7.572;2022-08-11T13:02:31;100682.38;;;46.05;10.37
45888;BME280;31595;51.418;7.572;2022-08-11T13:05:16;100680.44;;;46.86;9.67
45888;BME280;31595;51.418;7.572;2022-08-11T13:07:44;100674.03;;;47.08;9.58
45888;BME280;31595;51.418;7.572;2022-08-11T13:10:14;100673.72;;;46.85;10.05
45888;BME280;31595;51.418;7.572;2022-08-11T13:13:06;100673.13;;;46.73;9.17
45888;BME280;31595;51.418;7.572;2022-08-11T13:15:34;100674.16;;;46.17;9.53
45888;BME280;31595;51.418;7.572;2022-08-11T13:18:03;100671.91;;;46.23;9.76
45888;BME280;31595;51.418;7.572;2022-08-11T13:20:34;100670.25;;;46.41;10.04
45888;BME280;31595;51.418;7.572;2022-08-11T13:23:02;100667.94;;;46.34;9.63
45888;BME280;31595;51.418;7.572;2022-08-11T13:25:31;100662.34;;;46.04;9.85
45888;BME280;31595;51.418;7.572;2022-08-11T13:27:59;100651.94;;;45.27;10.57
45888;BME280;31595;51.418;7.572;2022-08-11T13:30:29;100659.09;;;44.88;10.49
45888;BME280;31595;51.418;7.572;2022-08-11T13:33:16;100657.97;;;44.66;10.59
45888;BME280;31595;51.418;7.572;2022-08-11T13:35:45;100652.53;;;45.01;10.59
45888;BME280;31595;51.418;7.572;2022-08-11T13:38:15;100657.50;;;44.62;10.95
45888;BME280;31595;51.418;7.572;2022-08-11T13:40:44;100650.34;;;44.27;10.93
45888;BME280;31595;51.418;7.572;2022-08-11T13:43:12;100644.41;;;44.03;11.29
45888;BME280;31595;51.418;7.572;2022-08-11T13:45:41;100647.09;;;44.31;11.47
45888;BME280;31595;51.418;7.572;2022-08-11T13:48:14;100640.19;;;43.98;11.11
45888;BME280;31595;51.418;7.572;2022-08-11T13:50:43;100636.91;;;43.71;11.44
45888;BME280;31595;51.418;7.572;2022-08-11T13:53:29;100636.16;;;43.59;11.15
45888;BME280;31595;51.418;7.572;2022-08-11T13:55:57;100629.13;;;43.32;11.36
45888;BME280;31595;51.418;7.572;2022-08-11T13:58:26;100635.97;;;42.88;11.82
45888;BME280;31595;51.418;7.572;2022-08-11T14:00:55;100631.22;;;42.85;12.50
45888;BME280;31595;51.418;7.572;2022-08-11T14:03:25;100635.44;;;42.95;12.55
45888;BME280;31595;51.418;7.572;2022-08-11T14:05:56;100630.13;;;42.82;12.05
45888;BME280;31595;51.418;7.572;2022-08-11T14:08:27;100632.34;;;42.48;12.36
45888;BME280;31595;51.418;7.572;2022-08-11T14:11:00;100635.53;;;42.50;12.60
45888;BME280;31595;51.418;7.572;2022-08-11T14:13:57;100625.44;;;42.51;11.90
45888;BME280;31595;51.418;7.572;2022-08-11T14:16:28;100632.09;;;42.46;12.70
45888;BME280;31595;51.418;7.572;2022-08-11T14:19:00;100633.44;;;42.45;12.45
45888;BME280;31595;51.418;7.572;2022-08-11T14:21:29;100635.28;;;42.14;12.19
45888;BME280;31595;51.418;7.572;2022-08-11T14:24:18;100633.72;;;42.13;12.81
45888;BME280;31595;51.418;7.572;2022-08-11T14:26:48;100623.03;;;41.98;12.65
45888;BME280;31595;51.418;7.572;2022-08-11T14:29:18;100631.78;;;41.87;13.18
45888;BME280;31595;51.418;7.572;2022-08-11T14:31:48;100625.97;;;41.93;12.35
45888;BME280;31595;51.418;7.572;2022-08-11T14:34:19;100625.97;;;41.82;12.16
45888;BME280;31595;51.418;7.572;2022-08-11T14:36:50;100620.06;;;40.88;13.73